Terminal Aerodrome Forecast
Issued by NWS Charleston, WV

Home | Current Version | Previous Version | Text Only | Print | Product List | Glossary On
Versions: 1 2 3 4 5 6 7 8 9 10 11 12 13 14 15 16 17 18 19 20 21 22 23 24
972
FTUS41 KRLX 040907 AAA
TAFEKN
TAF AMD
KEKN 040907Z 0409/0506 00000KT 5SM -SHRA BR FEW005 BKN050
     FM041100 00000KT 3SM BR BKN005 OVC050
     FM041600 VRB03KT P6SM BKN025=

USA.gov is the U.S. government's official web portal to all federal, state and local government web resources and services.